createdAt,value
2023-05-09T00:45:59.101Z,16.44
2023-05-09T00:46:59.991Z,16.42
2023-05-09T00:48:00.013Z,16.40
2023-05-09T00:48:59.961Z,16.40
2023-05-09T00:49:59.968Z,16.40
2023-05-09T00:50:59.977Z,16.40
2023-05-09T00:52:00.033Z,16.44
2023-05-09T00:52:59.937Z,16.43
2023-05-09T00:53:59.934Z,16.43
2023-05-09T00:54:59.900Z,16.44
2023-05-09T00:55:59.892Z,16.46
2023-05-09T00:56:59.870Z,16.49
2023-05-09T00:57:59.906Z,16.47
2023-05-09T00:58:59.975Z,16.44
2023-05-09T00:59:59.835Z,16.44
2023-05-09T01:00:59.861Z,16.39
2023-05-09T01:01:59.855Z,16.39
2023-05-09T01:02:59.919Z,16.36
2023-05-09T01:03:59.806Z,16.36
2023-05-09T01:04:59.871Z,16.37
2023-05-09T01:05:59.776Z,16.37
2023-05-09T01:06:59.779Z,16.37
2023-05-09T01:07:59.843Z,16.37
2023-05-09T01:08:59.764Z,16.36
2023-05-09T01:09:59.761Z,16.36
2023-05-09T01:10:59.749Z,16.34
2023-05-09T01:11:59.745Z,16.33
2023-05-09T01:12:59.728Z,16.36
2023-05-09T01:13:59.753Z,16.29
2023-05-09T01:14:59.785Z,16.32
2023-05-09T01:15:59.743Z,16.33
2023-05-09T01:16:59.725Z,16.28
2023-05-09T01:18:00.359Z,16.28
2023-05-09T01:18:59.683Z,16.28
2023-05-09T01:19:59.634Z,16.22
2023-05-09T01:20:59.641Z,16.21
2023-05-09T01:21:59.644Z,16.22
2023-05-09T01:22:59.694Z,16.16
2023-05-09T01:23:59.596Z,16.18
2023-05-09T01:24:59.675Z,16.16
2023-05-09T01:25:59.600Z,16.13
2023-05-09T01:26:59.579Z,16.14
2023-05-09T01:27:59.582Z,16.10
2023-05-09T01:28:59.561Z,16.09
2023-05-09T01:29:59.573Z,16.08
2023-05-09T01:30:59.688Z,16.08
2023-05-09T01:31:59.728Z,16.10
2023-05-09T01:32:59.537Z,16.09
2023-05-09T01:33:59.531Z,16.05
2023-05-09T01:34:59.503Z,16.06
2023-05-09T01:35:59.496Z,16.06
2023-05-09T01:36:59.506Z,16.05
2023-05-09T01:37:59.481Z,16.02
2023-05-09T01:38:59.562Z,16.00
2023-05-09T01:39:59.466Z,16.00
2023-05-09T01:40:59.430Z,16.00
2023-05-09T01:41:59.472Z,15.99
2023-05-09T01:42:59.408Z,16.02
2023-05-09T01:43:59.447Z,15.99
2023-05-09T01:44:59.406Z,15.98
2023-05-09T01:45:59.388Z,16.00
2023-05-09T01:46:59.491Z,15.98
2023-05-09T01:47:59.393Z,15.91
2023-05-09T01:48:59.352Z,15.91
2023-05-09T01:49:59.330Z,15.84
2023-05-09T01:50:59.390Z,15.81
2023-05-09T01:51:59.341Z,15.83
2023-05-09T01:52:59.311Z,15.81
2023-05-09T01:53:59.309Z,15.81
2023-05-09T01:54:59.294Z,15.81
2023-05-09T01:55:59.312Z,15.78
2023-05-09T01:56:59.329Z,15.80
2023-05-09T01:57:59.274Z,15.81
2023-05-09T01:58:59.279Z,15.80
2023-05-09T01:59:59.295Z,15.85
2023-05-09T02:00:59.267Z,15.83
2023-05-09T02:01:59.293Z,15.87
2023-05-09T02:02:59.323Z,15.83
2023-05-09T02:03:59.226Z,15.87
2023-05-09T02:04:59.202Z,15.87
2023-05-09T02:05:59.196Z,15.84
2023-05-09T02:06:59.216Z,15.85
2023-05-09T02:07:59.165Z,15.87
2023-05-09T02:08:59.207Z,15.88
2023-05-09T02:09:59.201Z,15.91
2023-05-09T02:10:59.140Z,15.91
2023-05-09T02:11:59.167Z,15.88
2023-05-09T02:12:59.200Z,15.87
2023-05-09T02:13:59.127Z,15.87
2023-05-09T02:14:59.085Z,15.85
2023-05-09T02:15:59.101Z,15.87
2023-05-09T02:16:59.164Z,15.90
2023-05-09T02:17:59.151Z,15.91
2023-05-09T02:18:59.236Z,15.90
2023-05-09T02:19:59.125Z,15.91
2023-05-09T02:20:59.040Z,15.90
2023-05-09T02:21:59.044Z,15.88
2023-05-09T02:22:59.018Z,15.87
2023-05-09T02:23:58.993Z,15.85
2023-05-09T02:24:59.038Z,15.87
2023-05-09T02:25:58.980Z,15.84
2023-05-09T02:26:58.964Z,15.84
2023-05-09T02:27:58.988Z,15.83
2023-05-09T02:28:58.978Z,15.80
2023-05-09T02:29:58.956Z,15.81
2023-05-09T02:30:58.930Z,15.83
2023-05-09T02:31:58.935Z,15.85
2023-05-09T02:32:58.949Z,15.88
2023-05-09T02:33:58.932Z,15.95
2023-05-09T02:34:58.891Z,15.91
2023-05-09T02:35:58.889Z,15.90
2023-05-09T02:36:58.916Z,15.91
2023-05-09T02:37:58.885Z,15.93
2023-05-09T02:38:58.882Z,15.98
2023-05-09T02:39:58.843Z,15.96
2023-05-09T02:40:58.850Z,15.98
2023-05-09T02:41:58.811Z,16.00
2023-05-09T02:42:58.810Z,15.98
2023-05-09T02:43:58.816Z,16.02
2023-05-09T02:44:58.815Z,16.02
2023-05-09T02:45:58.807Z,15.99
2023-05-09T02:46:58.764Z,16.00
2023-05-09T02:47:58.775Z,16.00
2023-05-09T02:48:58.765Z,16.00
2023-05-09T02:49:58.785Z,16.00
2023-05-09T02:50:58.765Z,16.00
2023-05-09T02:51:58.723Z,15.99
2023-05-09T02:52:58.724Z,15.99
2023-05-09T02:53:58.717Z,15.98
2023-05-09T02:54:58.712Z,15.95
2023-05-09T02:55:58.733Z,15.93
2023-05-09T02:56:58.758Z,15.93
2023-05-09T02:58:11.928Z,15.90
2023-05-09T02:58:58.673Z,15.85
2023-05-09T02:59:58.655Z,15.88
2023-05-09T03:00:58.662Z,15.85
2023-05-09T03:01:58.660Z,15.83
2023-05-09T03:02:58.604Z,15.80
2023-05-09T03:03:58.777Z,15.78
2023-05-09T03:04:58.570Z,15.80
2023-05-09T03:05:58.578Z,15.78
2023-05-09T03:06:58.564Z,15.73
2023-05-09T03:07:58.577Z,15.76
2023-05-09T03:08:58.529Z,15.70
2023-05-09T03:09:58.541Z,15.70
2023-05-09T03:10:58.513Z,15.69
2023-05-09T03:11:58.520Z,15.70
2023-05-09T03:12:58.556Z,15.72
2023-05-09T03:13:58.465Z,15.73
2023-05-09T03:14:58.432Z,15.72
2023-05-09T03:15:58.448Z,15.70
2023-05-09T03:16:58.433Z,15.73
2023-05-09T03:17:58.512Z,15.68
2023-05-09T03:18:58.456Z,15.68
2023-05-09T03:19:58.442Z,15.68
2023-05-09T03:20:58.434Z,15.65
2023-05-09T03:21:58.426Z,15.63
2023-05-09T03:22:58.495Z,15.59
2023-05-09T03:23:58.393Z,15.59
2023-05-09T03:24:58.400Z,15.54
2023-05-09T03:25:58.346Z,15.56
2023-05-09T03:26:58.314Z,15.47
2023-05-09T03:27:58.339Z,15.51
2023-05-09T03:28:58.491Z,15.47
2023-05-09T03:29:58.277Z,15.51
2023-05-09T03:30:58.296Z,15.48
2023-05-09T03:31:58.283Z,15.51
2023-05-09T03:32:58.324Z,15.54
2023-05-09T03:33:58.256Z,15.51
2023-05-09T03:34:58.236Z,15.56
2023-05-09T03:35:58.260Z,15.52
2023-05-09T03:36:58.219Z,15.59
2023-05-09T03:37:58.210Z,15.56
2023-05-09T03:38:58.177Z,15.60
2023-05-09T03:39:58.191Z,15.59
2023-05-09T03:40:58.173Z,15.60
2023-05-09T03:41:58.176Z,15.59
2023-05-09T03:42:58.135Z,15.58
2023-05-09T03:43:58.148Z,15.60
2023-05-09T03:44:58.145Z,15.62
2023-05-09T03:45:58.132Z,15.65
2023-05-09T03:46:58.182Z,15.68
2023-05-09T03:47:58.108Z,15.68
2023-05-09T03:48:58.086Z,15.66
2023-05-09T03:49:58.094Z,15.69
2023-05-09T03:50:58.061Z,15.69
2023-05-09T03:51:58.046Z,15.70
2023-05-09T03:52:58.034Z,15.73
2023-05-09T03:53:58.042Z,15.69
2023-05-09T03:54:58.060Z,15.69
2023-05-09T03:55:58.070Z,15.68
2023-05-09T03:56:58.038Z,15.66
2023-05-09T03:57:57.982Z,15.62
2023-05-09T03:58:57.993Z,15.59
2023-05-09T03:59:57.988Z,15.56
2023-05-09T04:00:57.961Z,15.56
2023-05-09T04:01:57.987Z,15.54
2023-05-09T04:02:58.014Z,15.54
2023-05-09T04:03:58.085Z,15.54
2023-05-09T04:04:57.930Z,15.52
2023-05-09T04:05:57.926Z,15.56
2023-05-09T04:06:57.930Z,15.60
2023-05-09T04:07:57.904Z,15.58
2023-05-09T04:08:57.892Z,15.54
2023-05-09T04:09:57.866Z,15.59
2023-05-09T04:10:57.888Z,15.60
2023-05-09T04:11:57.919Z,15.59
2023-05-09T04:12:57.880Z,15.56
2023-05-09T04:13:58.713Z,15.59
2023-05-09T04:14:57.822Z,15.60
2023-05-09T04:15:57.853Z,15.62
2023-05-09T04:16:57.839Z,15.62
2023-05-09T04:17:57.911Z,15.68
2023-05-09T04:18:57.785Z,15.68
2023-05-09T04:19:57.961Z,15.73
2023-05-09T04:20:57.762Z,15.76
2023-05-09T04:21:57.771Z,15.76
2023-05-09T04:22:57.766Z,15.73
2023-05-09T04:23:57.737Z,15.73
2023-05-09T04:24:57.736Z,15.72
2023-05-09T04:25:57.735Z,15.77
2023-05-09T04:26:57.681Z,15.73
2023-05-09T04:27:57.712Z,15.72
2023-05-09T04:28:57.669Z,15.69
2023-05-09T04:29:57.705Z,15.72
2023-05-09T04:30:57.736Z,15.70
2023-05-09T04:31:57.752Z,15.70
2023-05-09T04:32:57.707Z,15.70
2023-05-09T04:33:57.676Z,15.73
2023-05-09T04:34:57.625Z,15.72
2023-05-09T04:35:57.608Z,15.78
2023-05-09T04:36:57.614Z,15.78
2023-05-09T04:37:57.598Z,15.81
2023-05-09T04:38:57.617Z,15.80
2023-05-09T04:39:57.564Z,15.83
2023-05-09T04:40:57.620Z,15.83
2023-05-09T04:41:57.542Z,15.80
2023-05-09T04:42:57.555Z,15.83
2023-05-09T04:43:57.543Z,15.83
2023-05-09T04:44:57.521Z,15.84
2023-05-09T04:45:57.543Z,15.84
2023-05-09T04:46:57.492Z,15.87
2023-05-09T04:47:57.509Z,15.93
2023-05-09T04:48:57.490Z,15.91
2023-05-09T04:49:57.482Z,15.99
2023-05-09T04:50:57.474Z,15.95
2023-05-09T04:51:58.236Z,15.96
2023-05-09T04:52:57.466Z,15.96
2023-05-09T04:53:57.433Z,15.95
2023-05-09T04:54:57.410Z,15.98
2023-05-09T04:55:57.397Z,16.00
2023-05-09T04:57:09.930Z,16.05
2023-05-09T04:57:57.381Z,16.09
2023-05-09T04:58:57.361Z,16.10
2023-05-09T04:59:57.370Z,16.16
2023-05-09T05:00:57.338Z,16.21
2023-05-09T05:01:57.368Z,16.24
2023-05-09T05:02:57.353Z,16.24
2023-05-09T05:03:57.593Z,16.24
2023-05-09T05:05:10.124Z,16.29
2023-05-09T05:05:57.299Z,16.29
2023-05-09T05:06:57.302Z,16.33
2023-05-09T05:07:57.295Z,16.34
2023-05-09T05:08:57.273Z,16.40
2023-05-09T05:09:57.281Z,16.43
2023-05-09T05:10:57.244Z,16.46
2023-05-09T05:12:01.258Z,16.51
2023-05-09T05:12:57.232Z,16.52
2023-05-09T05:13:57.202Z,16.55
2023-05-09T05:14:57.407Z,16.57
2023-05-09T05:15:57.280Z,16.61
2023-05-09T05:16:57.295Z,16.67
2023-05-09T05:17:57.214Z,16.69
2023-05-09T05:18:57.161Z,16.74
2023-05-09T05:19:57.206Z,16.79
2023-05-09T05:20:57.173Z,16.80
2023-05-09T05:21:57.134Z,16.79
2023-05-09T05:22:57.115Z,16.80
2023-05-09T05:23:57.200Z,16.82
2023-05-09T05:24:57.120Z,16.84
2023-05-09T05:25:57.133Z,16.88
2023-05-09T05:26:57.177Z,16.88
2023-05-09T05:27:57.066Z,16.91
2023-05-09T05:28:57.078Z,16.91
2023-05-09T05:29:57.976Z,16.88
2023-05-09T05:30:57.101Z,16.84
2023-05-09T05:31:57.169Z,16.87
2023-05-09T05:32:57.086Z,16.84
2023-05-09T05:33:57.024Z,16.84
2023-05-09T05:34:57.895Z,16.84
2023-05-09T05:35:57.379Z,16.83
2023-05-09T05:36:57.007Z,16.80
2023-05-09T05:37:57.342Z,16.82
2023-05-09T05:38:56.962Z,16.83
2023-05-09T05:39:56.963Z,16.84
2023-05-09T05:40:56.960Z,16.84
2023-05-09T05:41:57.114Z,16.90
2023-05-09T05:42:56.931Z,16.94
2023-05-09T05:43:56.975Z,17.04
2023-05-09T05:44:56.894Z,17.01
2023-05-09T05:45:57.070Z,16.99
2023-05-09T05:46:56.888Z,17.01
2023-05-09T05:47:56.965Z,16.98
2023-05-09T05:48:57.529Z,16.95
2023-05-09T05:49:56.843Z,16.99
2023-05-09T05:50:56.844Z,17.02
2023-05-09T05:51:56.978Z,17.01
2023-05-09T05:52:56.842Z,17.07
2023-05-09T05:53:56.839Z,17.04
2023-05-09T05:54:56.899Z,17.10
2023-05-09T05:55:56.782Z,17.12
2023-05-09T05:56:56.800Z,17.16
2023-05-09T05:57:56.812Z,17.16
2023-05-09T05:58:56.945Z,17.17
2023-05-09T05:59:56.844Z,17.20
2023-05-09T06:00:56.709Z,17.19
2023-05-09T06:01:56.767Z,17.19
2023-05-09T06:02:56.851Z,17.24
2023-05-09T06:03:56.855Z,17.24
2023-05-09T06:04:56.683Z,17.20
2023-05-09T06:05:56.878Z,17.22
2023-05-09T06:06:56.705Z,17.16
2023-05-09T06:07:56.647Z,17.16
2023-05-09T06:08:57.209Z,17.12
2023-05-09T06:09:56.686Z,17.10
2023-05-09T06:10:56.634Z,17.04
2023-05-09T06:11:56.635Z,17.07
2023-05-09T06:12:56.688Z,17.13
2023-05-09T06:13:56.634Z,17.12
2023-05-09T06:14:56.570Z,17.13
2023-05-09T06:16:01.914Z,17.10
2023-05-09T06:16:56.573Z,17.13
2023-05-09T06:17:56.610Z,17.12
2023-05-09T06:18:56.602Z,17.17
2023-05-09T06:19:56.625Z,17.20
2023-05-09T06:20:56.744Z,17.19
2023-05-09T06:21:56.516Z,17.17
2023-05-09T06:22:56.526Z,17.14
2023-05-09T06:24:56.559Z,17.16
2023-05-09T06:25:56.563Z,17.12
2023-05-09T06:26:56.436Z,17.12
2023-05-09T06:27:56.467Z,17.07
2023-05-09T06:28:56.468Z,17.09
2023-05-09T06:29:56.453Z,17.13
2023-05-09T06:30:56.512Z,17.12
2023-05-09T06:31:56.506Z,17.13
2023-05-09T06:32:56.427Z,17.16
2023-05-09T06:33:56.374Z,17.16
2023-05-09T06:34:56.363Z,17.20
2023-05-09T06:35:56.381Z,17.24
2023-05-09T06:36:56.355Z,17.27
2023-05-09T06:37:56.455Z,17.31
2023-05-09T06:38:56.337Z,17.28
2023-05-09T06:39:56.401Z,17.32
2023-05-09T06:40:56.348Z,17.31
2023-05-09T06:41:56.337Z,17.30
2023-05-09T06:42:56.315Z,17.32
2023-05-09T06:43:56.301Z,17.32
2023-05-09T06:44:56.275Z,17.34
2023-05-09T06:45:56.409Z,17.34
2023-05-09T06:46:56.258Z,17.28
2023-05-09T06:47:56.339Z,17.28
2023-05-09T06:48:56.253Z,17.30
2023-05-09T06:49:56.206Z,17.32
2023-05-09T06:50:56.237Z,17.32
2023-05-09T06:51:56.214Z,17.34
2023-05-09T06:52:56.188Z,17.35
2023-05-09T06:53:56.231Z,17.35
2023-05-09T06:54:56.150Z,17.38
2023-05-09T06:55:56.163Z,17.37
2023-05-09T06:56:56.137Z,17.38
2023-05-09T06:57:56.128Z,17.39
2023-05-09T06:58:56.122Z,17.39
2023-05-09T06:59:56.142Z,17.41
2023-05-09T07:00:56.112Z,17.41
2023-05-09T07:01:56.137Z,17.43
2023-05-09T07:02:56.105Z,17.45
2023-05-09T07:03:56.082Z,17.46
2023-05-09T07:04:56.090Z,17.47
2023-05-09T07:05:56.122Z,17.47
2023-05-09T07:06:56.070Z,17.47
2023-05-09T07:07:56.025Z,17.47
2023-05-09T07:08:56.093Z,17.47
2023-05-09T07:10:07.274Z,17.49
2023-05-09T07:10:56.006Z,17.53
2023-05-09T07:11:55.965Z,17.52
2023-05-09T07:12:56.076Z,17.54
2023-05-09T07:13:56.022Z,17.57
2023-05-09T07:14:56.226Z,17.57
2023-05-09T07:15:55.954Z,17.65
2023-05-09T07:17:05.187Z,17.72
2023-05-09T07:17:55.999Z,17.75
2023-05-09T07:18:56.906Z,17.76
2023-05-09T07:19:56.186Z,17.87
2023-05-09T07:20:56.050Z,17.94
2023-05-09T07:21:55.877Z,18.02
2023-05-09T07:22:55.967Z,18.15
2023-05-09T07:23:55.876Z,18.20
2023-05-09T07:24:55.856Z,18.20
2023-05-09T07:25:55.877Z,18.24
2023-05-09T07:26:55.873Z,18.27
2023-05-09T07:27:56.087Z,18.23
2023-05-09T07:28:56.430Z,18.26
2023-05-09T07:29:56.174Z,18.26
2023-05-09T07:30:55.935Z,18.26
2023-05-09T07:31:56.122Z,18.28
2023-05-09T07:32:55.790Z,18.26
2023-05-09T07:33:55.735Z,18.21
2023-05-09T07:34:55.840Z,18.21
2023-05-09T07:35:55.743Z,18.15
2023-05-09T07:36:55.699Z,18.13
2023-05-09T07:37:55.798Z,18.11
2023-05-09T07:38:55.755Z,18.08
2023-05-09T07:39:55.707Z,18.03
2023-05-09T07:40:55.690Z,17.97
2023-05-09T07:41:56.447Z,17.96
2023-05-09T07:42:55.628Z,17.93
2023-05-09T07:43:55.666Z,17.94
2023-05-09T07:44:55.639Z,17.90
2023-05-09T07:45:55.635Z,17.88
2023-05-09T07:46:55.653Z,17.90
2023-05-09T07:47:55.642Z,17.88
2023-05-09T07:48:55.582Z,17.91
2023-05-09T07:49:55.553Z,17.93
2023-05-09T07:50:55.551Z,17.97
2023-05-09T07:51:55.608Z,18.02
2023-05-09T07:52:55.576Z,18.05
2023-05-09T07:53:55.656Z,18.09
2023-05-09T07:54:55.588Z,18.13
2023-05-09T07:55:55.505Z,18.17
2023-05-09T07:56:55.522Z,18.20
2023-05-09T07:57:55.487Z,18.18
2023-05-09T07:58:55.984Z,18.15
2023-05-09T07:59:55.542Z,18.13
2023-05-09T08:00:55.721Z,18.17
2023-05-09T08:01:55.509Z,18.17
2023-05-09T08:02:55.529Z,18.18
2023-05-09T08:03:55.702Z,18.17
2023-05-09T08:04:55.531Z,18.20
2023-05-09T08:05:55.436Z,18.23
2023-05-09T08:06:55.374Z,18.23
2023-05-09T08:07:55.390Z,18.28
2023-05-09T08:08:55.370Z,18.20
2023-05-09T08:09:55.418Z,18.20
2023-05-09T08:10:55.376Z,18.17
2023-05-09T08:11:55.954Z,18.18
2023-05-09T08:12:55.366Z,18.15
2023-05-09T08:13:55.308Z,18.06
2023-05-09T08:14:55.312Z,17.94
2023-05-09T08:15:55.399Z,17.90
2023-05-09T08:16:55.281Z,17.88
2023-05-09T08:17:55.279Z,17.86
2023-05-09T08:18:55.274Z,17.79
2023-05-09T08:19:55.241Z,17.75
2023-05-09T08:20:55.313Z,17.76
2023-05-09T08:21:55.339Z,17.73
2023-05-09T08:22:55.237Z,17.71
2023-05-09T08:23:56.883Z,17.66
2023-05-09T08:24:55.359Z,17.68
2023-05-09T08:25:55.241Z,17.63
2023-05-09T08:26:55.196Z,17.68
2023-05-09T08:27:55.183Z,17.73
2023-05-09T08:28:55.168Z,17.75
2023-05-09T08:29:55.161Z,17.75
2023-05-09T08:30:55.166Z,17.78
2023-05-09T08:31:55.334Z,17.75
2023-05-09T08:32:55.380Z,17.75
2023-05-09T08:33:55.867Z,17.75
2023-05-09T08:34:55.080Z,17.81
2023-05-09T08:35:55.080Z,17.79
2023-05-09T08:36:55.100Z,17.76
2023-05-09T08:37:55.083Z,17.72
2023-05-09T08:38:55.122Z,17.68
2023-05-09T08:39:55.427Z,17.63
2023-05-09T08:40:55.051Z,17.66
2023-05-09T08:41:55.100Z,17.69
2023-05-09T08:42:55.084Z,17.73
2023-05-09T08:43:54.998Z,17.79
2023-05-09T08:44:55.007Z,17.81
2023-05-09T08:45:55.023Z,17.88
2023-05-09T08:46:55.074Z,17.79
2023-05-09T08:47:54.961Z,17.79
2023-05-09T08:48:55.009Z,17.75
2023-05-09T08:49:54.968Z,17.75
2023-05-09T08:50:55.014Z,17.76
2023-05-09T08:51:54.907Z,17.76
2023-05-09T08:52:54.896Z,17.76
2023-05-09T08:53:54.946Z,17.79
2023-05-09T08:54:55.020Z,17.78
2023-05-09T08:55:54.859Z,17.81
2023-05-09T08:56:54.899Z,17.79
2023-05-09T08:57:54.873Z,17.84
2023-05-09T08:58:54.829Z,17.83
2023-05-09T08:59:54.900Z,17.84
2023-05-09T09:00:54.868Z,17.84
2023-05-09T09:01:55.050Z,17.86
2023-05-09T09:02:54.950Z,17.88
2023-05-09T09:03:54.943Z,17.91
2023-05-09T09:04:54.906Z,17.94
2023-05-09T09:05:54.963Z,17.93
2023-05-09T09:06:54.853Z,17.91
2023-05-09T09:07:54.776Z,17.91
2023-05-09T09:08:54.820Z,17.93
2023-05-09T09:09:54.739Z,17.93
2023-05-09T09:10:54.795Z,17.93
2023-05-09T09:11:54.821Z,17.91
2023-05-09T09:12:54.961Z,17.88
2023-05-09T09:13:54.809Z,17.90
2023-05-09T09:14:55.032Z,17.84
2023-05-09T09:15:54.759Z,17.84
2023-05-09T09:16:54.753Z,17.84
2023-05-09T09:17:55.651Z,17.84
2023-05-09T09:18:55.828Z,17.81
2023-05-09T09:19:54.782Z,17.83
2023-05-09T09:20:54.757Z,17.78
2023-05-09T09:21:54.717Z,17.78
2023-05-09T09:22:54.655Z,17.75
2023-05-09T09:23:54.731Z,17.73
2023-05-09T09:24:54.746Z,17.72
2023-05-09T09:25:54.953Z,17.72
2023-05-09T09:26:54.707Z,17.75
2023-05-09T09:27:55.596Z,17.79
2023-05-09T09:28:54.632Z,17.83
2023-05-09T09:29:54.612Z,17.87
2023-05-09T09:30:54.532Z,17.93
2023-05-09T09:31:55.514Z,17.93
2023-05-09T09:32:54.693Z,17.90
2023-05-09T09:33:54.516Z,17.88
2023-05-09T09:34:54.533Z,17.88
2023-05-09T09:35:54.578Z,17.87
2023-05-09T09:36:54.626Z,17.86
2023-05-09T09:37:54.516Z,17.81
2023-05-09T09:38:54.537Z,17.79
2023-05-09T09:39:54.445Z,17.76
2023-05-09T09:40:54.626Z,17.76
2023-05-09T09:41:54.411Z,17.73
2023-05-09T09:42:54.423Z,17.75
2023-05-09T09:43:55.231Z,17.69
2023-05-09T09:44:54.369Z,17.69
2023-05-09T09:45:54.480Z,17.65
2023-05-09T09:46:54.540Z,17.68
2023-05-09T09:47:54.610Z,17.63
2023-05-09T09:48:54.377Z,17.66
2023-05-09T09:49:54.412Z,17.68
2023-05-09T09:50:54.390Z,17.68
2023-05-09T09:51:54.317Z,17.71
2023-05-09T09:52:54.329Z,17.66
2023-05-09T09:53:54.448Z,17.71
2023-05-09T09:54:54.314Z,17.71
2023-05-09T09:55:54.250Z,17.75
2023-05-09T09:56:54.465Z,17.79
2023-05-09T09:57:55.316Z,17.84
2023-05-09T09:58:54.913Z,17.91
2023-05-09T09:59:54.196Z,18.02
2023-05-09T10:00:54.253Z,18.09
2023-05-09T10:01:54.168Z,18.13
2023-05-09T10:02:54.286Z,18.21
2023-05-09T10:03:54.308Z,18.28
2023-05-09T10:04:54.128Z,18.38
2023-05-09T10:05:54.204Z,18.43
2023-05-09T10:06:54.213Z,18.49
2023-05-09T10:07:54.094Z,18.57
2023-05-09T10:08:54.111Z,18.60
2023-05-09T10:09:54.120Z,18.68
2023-05-09T10:10:54.126Z,18.74
2023-05-09T10:11:54.104Z,18.81
2023-05-09T10:12:54.181Z,18.83
2023-05-09T10:13:54.336Z,18.88
2023-05-09T10:14:54.038Z,18.89
2023-05-09T10:15:54.335Z,18.88
2023-05-09T10:16:54.077Z,18.88
2023-05-09T10:17:54.351Z,18.91
2023-05-09T10:18:53.977Z,18.93
2023-05-09T10:19:53.987Z,18.96
2023-05-09T10:20:53.994Z,19.00
2023-05-09T10:21:54.009Z,19.00
2023-05-09T10:22:53.968Z,19.01
2023-05-09T10:23:53.941Z,19.04
2023-05-09T10:24:55.576Z,18.98
2023-05-09T10:25:54.125Z,18.96
2023-05-09T10:26:53.905Z,18.89
2023-05-09T10:27:54.229Z,18.85
2023-05-09T10:28:54.501Z,18.82
2023-05-09T10:29:53.934Z,18.91
2023-05-09T10:30:53.965Z,18.96
2023-05-09T10:31:53.876Z,18.94
2023-05-09T10:32:53.898Z,19.04
2023-05-09T10:33:53.998Z,19.07
2023-05-09T10:34:53.882Z,19.15
2023-05-09T10:35:53.842Z,19.24
2023-05-09T10:36:53.836Z,19.32
2023-05-09T10:37:53.799Z,19.42
2023-05-09T10:38:54.001Z,19.50
2023-05-09T10:39:54.139Z,19.54
2023-05-09T10:40:53.824Z,19.59
2023-05-09T10:41:53.918Z,19.68
2023-05-09T10:42:53.824Z,19.72
2023-05-09T10:43:53.795Z,19.75
2023-05-09T10:44:53.798Z,19.71
2023-05-09T10:45:56.951Z,19.67
2023-05-09T10:46:53.902Z,19.62
2023-05-09T10:47:53.831Z,19.59
2023-05-09T10:48:57.014Z,19.59
2023-05-09T10:49:53.779Z,19.59
2023-05-09T10:50:53.735Z,19.53
2023-05-09T10:51:53.776Z,19.52
2023-05-09T10:52:53.722Z,19.52
2023-05-09T10:53:53.808Z,19.52
2023-05-09T10:54:53.721Z,19.52
2023-05-09T10:55:53.713Z,19.44
2023-05-09T10:56:54.193Z,19.39
2023-05-09T10:57:53.641Z,19.31
2023-05-09T10:58:53.664Z,19.26
2023-05-09T10:59:54.304Z,19.26
2023-05-09T11:00:55.159Z,19.23
2023-05-09T11:01:53.773Z,19.30
2023-05-09T11:02:53.647Z,19.35
2023-05-09T11:03:53.585Z,19.37
2023-05-09T11:04:53.564Z,19.39
2023-05-09T11:05:53.607Z,19.45
2023-05-09T11:06:55.143Z,19.57
2023-05-09T11:07:53.666Z,19.54
2023-05-09T11:08:53.578Z,19.60
2023-05-09T11:09:53.792Z,19.70
2023-05-09T11:10:53.536Z,19.75
2023-05-09T11:11:53.475Z,19.79
2023-05-09T11:12:54.889Z,19.87
2023-05-09T11:13:53.489Z,19.96
2023-05-09T11:14:53.514Z,20.04
2023-05-09T11:15:53.513Z,20.11
2023-05-09T11:16:53.447Z,20.09
2023-05-09T11:17:53.583Z,20.08
2023-05-09T11:18:53.508Z,20.00
2023-05-09T11:19:53.377Z,19.89
2023-05-09T11:20:53.388Z,19.79
2023-05-09T11:21:53.475Z,19.74
2023-05-09T11:22:53.392Z,19.67
2023-05-09T11:23:55.288Z,19.64
2023-05-09T11:24:53.405Z,19.57
2023-05-09T11:25:53.358Z,19.63
2023-05-09T11:26:53.490Z,19.68
2023-05-09T11:27:53.330Z,19.68
2023-05-09T11:28:53.329Z,19.62
2023-05-09T11:29:53.332Z,19.71
2023-05-09T11:30:54.868Z,19.72
2023-05-09T11:31:53.289Z,19.75
2023-05-09T11:32:53.406Z,19.82
2023-05-09T11:33:53.319Z,19.94
2023-05-09T11:34:53.259Z,20.04
2023-05-09T11:35:53.285Z,20.14
2023-05-09T11:37:53.390Z,20.19
2023-05-09T11:38:53.252Z,20.15
2023-05-09T11:39:53.200Z,20.08
2023-05-09T11:40:53.146Z,20.12
2023-05-09T11:41:53.132Z,20.14
2023-05-09T11:42:54.063Z,20.26
2023-05-09T11:43:53.104Z,20.32
2023-05-09T11:44:53.138Z,20.41
2023-05-09T11:45:53.208Z,20.41
2023-05-09T11:46:53.104Z,20.46
2023-05-09T11:47:53.169Z,20.46
2023-05-09T11:48:53.051Z,20.52
2023-05-09T11:49:53.081Z,20.61
2023-05-09T11:50:53.466Z,20.61
2023-05-09T11:51:53.046Z,20.63
2023-05-09T11:52:52.996Z,20.61
2023-05-09T11:53:52.990Z,20.70
2023-05-09T11:54:53.170Z,20.73
2023-05-09T11:55:52.990Z,20.77
2023-05-09T11:56:53.123Z,20.80
2023-05-09T11:57:53.096Z,20.83
2023-05-09T11:58:52.997Z,20.86
2023-05-09T11:59:52.979Z,20.93
2023-05-09T12:00:52.979Z,20.92
2023-05-09T12:01:53.048Z,20.98
2023-05-09T12:02:53.052Z,20.92
2023-05-09T12:03:52.996Z,20.92
2023-05-09T12:04:52.925Z,20.98
2023-05-09T12:05:52.964Z,21.00
2023-05-09T12:06:52.978Z,21.07
2023-05-09T12:07:52.991Z,21.13
2023-05-09T12:08:52.968Z,21.08
2023-05-09T12:09:52.873Z,21.11
2023-05-09T12:10:52.922Z,21.11
2023-05-09T12:11:52.868Z,21.08
2023-05-09T12:12:53.215Z,21.11
2023-05-09T12:13:53.052Z,21.18
2023-05-09T12:14:53.951Z,21.22
2023-05-09T12:15:52.888Z,21.28
2023-05-09T12:16:52.824Z,21.32
2023-05-09T12:17:52.927Z,21.40
2023-05-09T12:18:52.787Z,21.35
2023-05-09T12:19:52.755Z,21.35
2023-05-09T12:20:52.776Z,21.41
2023-05-09T12:21:52.753Z,21.45
2023-05-09T12:22:52.723Z,21.50
2023-05-09T12:23:53.496Z,21.53
2023-05-09T12:24:52.776Z,21.58
2023-05-09T12:25:52.691Z,21.56
2023-05-09T12:26:52.757Z,21.55
2023-05-09T12:27:52.737Z,21.51
2023-05-09T12:28:52.658Z,21.51
2023-05-09T12:29:54.941Z,21.51
2023-05-09T12:30:52.621Z,21.47
2023-05-09T12:31:53.776Z,21.45
2023-05-09T12:32:52.674Z,21.48
2023-05-09T12:33:52.625Z,21.48
2023-05-09T12:34:52.572Z,21.53
2023-05-09T12:36:52.883Z,21.59
2023-05-09T12:37:52.640Z,21.55
2023-05-09T12:38:52.579Z,21.53
2023-05-09T12:39:52.561Z,21.55
2023-05-09T12:40:52.576Z,21.58
2023-05-09T12:42:01.165Z,21.53
2023-05-09T12:42:52.768Z,21.44
2023-05-09T12:43:52.508Z,21.41
2023-05-09T12:44:52.487Z,21.41
2023-05-09T12:45:52.542Z,21.40
2023-05-09T12:46:52.486Z,21.37
2023-05-09T12:47:52.588Z,21.41
2023-05-09T12:48:52.500Z,21.38
2023-05-09T12:49:52.469Z,21.40
2023-05-09T12:50:52.421Z,21.35
2023-05-09T12:51:52.465Z,21.38
2023-05-09T12:53:02.650Z,21.40
2023-05-09T12:53:52.517Z,21.40
2023-05-09T12:54:52.457Z,21.38
2023-05-09T12:55:52.369Z,21.40
2023-05-09T12:56:52.432Z,21.34
2023-05-09T12:57:52.340Z,21.34
2023-05-09T12:58:52.545Z,21.26
2023-05-09T12:59:52.417Z,21.26
2023-05-09T13:00:53.814Z,21.23
2023-05-09T13:01:52.477Z,21.25
2023-05-09T13:02:52.461Z,21.22
2023-05-09T13:03:52.289Z,21.16
2023-05-09T13:04:52.319Z,21.07
2023-05-09T13:05:52.277Z,21.01
2023-05-09T13:06:52.410Z,20.93
2023-05-09T13:07:52.348Z,20.89
2023-05-09T13:08:52.296Z,20.82
2023-05-09T13:09:52.260Z,20.79
2023-05-09T13:11:00.807Z,20.79
2023-05-09T13:11:52.288Z,20.80
2023-05-09T13:12:52.299Z,20.85
2023-05-09T13:13:52.333Z,20.89
2023-05-09T13:14:52.305Z,20.93
2023-05-09T13:15:52.247Z,20.97
2023-05-09T13:16:52.176Z,20.98
2023-05-09T13:17:52.334Z,20.97
2023-05-09T13:18:52.202Z,20.97
2023-05-09T13:19:52.396Z,20.97
2023-05-09T13:20:52.258Z,20.92
2023-05-09T13:21:52.206Z,20.92
2023-05-09T13:22:52.083Z,20.90
2023-05-09T13:23:52.129Z,20.92
2023-05-09T13:24:52.434Z,20.93
2023-05-09T13:25:52.102Z,20.89
2023-05-09T13:26:52.128Z,20.86
2023-05-09T13:27:52.059Z,20.82
2023-05-09T13:28:52.023Z,20.80
2023-05-09T13:29:52.032Z,20.83
2023-05-09T13:30:52.174Z,20.82
2023-05-09T13:31:52.062Z,20.77
2023-05-09T13:32:52.104Z,20.74
2023-05-09T13:33:52.290Z,20.74
2023-05-09T13:34:52.062Z,20.74
2023-05-09T13:35:52.056Z,20.74
2023-05-09T13:36:52.073Z,20.79
2023-05-09T13:37:52.339Z,20.77
2023-05-09T13:38:51.912Z,20.79
2023-05-09T13:39:52.077Z,20.79
2023-05-09T13:40:51.979Z,20.82